sensor_id;sensor_type;location;lat;lon;timestamp;pressure;altitude;pressure_sealevel;temperature;humidity
76973;BME280;65907;53.640;10.050;2023-12-14T00:01:26;100055.91;;;21.34;42.40
76973;BME280;65907;53.640;10.050;2023-12-14T00:03:51;100049.97;;;21.32;42.25
76973;BME280;65907;53.640;10.050;2023-12-14T00:06:16;100058.81;;;21.31;42.11
76973;BME280;65907;53.640;10.050;2023-12-14T00:13:52;100088.53;;;21.30;42.11
76973;BME280;65907;53.640;10.050;2023-12-14T00:16:17;100082.34;;;21.31;42.22
76973;BME280;65907;53.640;10.050;2023-12-14T00:18:42;100093.63;;;21.31;42.23
76973;BME280;65907;53.640;10.050;2023-12-14T00:21:08;100092.00;;;21.30;42.22
76973;BME280;65907;53.640;10.050;2023-12-14T00:23:33;100095.88;;;21.26;42.39
76973;BME280;65907;53.640;10.050;2023-12-14T00:25:59;100096.25;;;21.31;42.22
76973;BME280;65907;53.640;10.050;2023-12-14T00:28:24;100100.13;;;21.27;42.12
76973;BME280;65907;53.640;10.050;2023-12-14T00:30:49;100105.78;;;21.23;42.40
76973;BME280;65907;53.640;10.050;2023-12-14T00:33:14;100117.28;;;21.30;42.26
76973;BME280;65907;53.640;10.050;2023-12-14T00:35:39;100114.00;;;21.28;42.31
76973;BME280;65907;53.640;10.050;2023-12-14T00:38:05;100118.72;;;21.24;42.39
76973;BME280;65907;53.640;10.050;2023-12-14T00:40:30;100118.97;;;21.21;42.33
76973;BME280;65907;53.640;10.050;2023-12-14T00:42:55;100122.72;;;21.18;42.38
76973;BME280;65907;53.640;10.050;2023-12-14T00:45:22;100122.56;;;21.20;42.33
76973;BME280;65907;53.640;10.050;2023-12-14T00:47:47;100132.59;;;21.25;42.10
76973;BME280;65907;53.640;10.050;2023-12-14T00:50:12;100140.34;;;21.16;42.31
76973;BME280;65907;53.640;10.050;2023-12-14T00:52:41;100149.16;;;21.15;42.27
76973;BME280;65907;53.640;10.050;2023-12-14T00:55:06;100157.97;;;21.14;42.46
76973;BME280;65907;53.640;10.050;2023-12-14T00:57:31;100160.03;;;21.11;42.48
76973;BME280;65907;53.640;10.050;2023-12-14T00:59:56;100168.72;;;21.11;42.36
76973;BME280;65907;53.640;10.050;2023-12-14T01:02:22;100164.44;;;21.10;42.45
76973;BME280;65907;53.640;10.050;2023-12-14T01:04:50;100175.44;;;21.14;42.32
76973;BME280;65907;53.640;10.050;2023-12-14T01:07:15;100182.59;;;21.12;42.50
76973;BME280;65907;53.640;10.050;2023-12-14T01:09:40;100177.25;;;21.13;42.24
76973;BME280;65907;53.640;10.050;2023-12-14T01:12:06;100186.06;;;21.12;42.31
76973;BME280;65907;53.640;10.050;2023-12-14T01:14:34;100189.47;;;21.13;42.33
76973;BME280;65907;53.640;10.050;2023-12-14T01:16:59;100185.50;;;21.09;42.45
76973;BME280;65907;53.640;10.050;2023-12-14T01:19:28;100189.47;;;21.13;42.31
76973;BME280;65907;53.640;10.050;2023-12-14T01:21:53;100198.97;;;21.14;42.38
76973;BME280;65907;53.640;10.050;2023-12-14T01:24:20;100193.19;;;21.10;42.59
76973;BME280;65907;53.640;10.050;2023-12-14T01:26:45;100196.63;;;21.11;42.40
76973;BME280;65907;53.640;10.050;2023-12-14T01:29:10;100196.50;;;21.12;42.20
76973;BME280;65907;53.640;10.050;2023-12-14T01:31:36;100207.94;;;21.11;42.34
76973;BME280;65907;53.640;10.050;2023-12-14T01:34:04;100207.78;;;21.13;42.06
76973;BME280;65907;53.640;10.050;2023-12-14T01:36:29;100213.28;;;21.10;42.64
76973;BME280;65907;53.640;10.050;2023-12-14T01:38:54;100220.59;;;21.06;42.55
76973;BME280;65907;53.640;10.050;2023-12-14T01:41:20;100224.31;;;21.03;42.23
76973;BME280;65907;53.640;10.050;2023-12-14T01:43:45;100224.56;;;21.10;42.14
76973;BME280;65907;53.640;10.050;2023-12-14T01:46:10;100237.22;;;21.05;42.31
76973;BME280;65907;53.640;10.050;2023-12-14T01:48:36;100247.16;;;21.11;42.22
76973;BME280;65907;53.640;10.050;2023-12-14T01:51:01;100245.06;;;21.05;42.51
76973;BME280;65907;53.640;10.050;2023-12-14T01:53:27;100247.00;;;21.03;42.34
76973;BME280;65907;53.640;10.050;2023-12-14T01:55:55;100247.00;;;21.03;42.34
76973;BME280;65907;53.640;10.050;2023-12-14T01:58:21;100243.59;;;21.02;42.60
76973;BME280;65907;53.640;10.050;2023-12-14T02:00:51;100242.34;;;21.06;42.22
76973;BME280;65907;53.640;10.050;2023-12-14T02:03:19;100246.03;;;21.04;42.24
76973;BME280;65907;53.640;10.050;2023-12-14T02:05:44;100253.88;;;21.04;42.35
76973;BME280;65907;53.640;10.050;2023-12-14T02:08:10;100263.66;;;21.12;42.28
76973;BME280;65907;53.640;10.050;2023-12-14T02:10:35;100275.75;;;21.03;42.45
76973;BME280;65907;53.640;10.050;2023-12-14T02:13:04;100274.97;;;21.02;42.25
76973;BME280;65907;53.640;10.050;2023-12-14T02:15:29;100273.53;;;21.08;42.58
76973;BME280;65907;53.640;10.050;2023-12-14T02:17:55;100274.00;;;21.03;42.62
76973;BME280;65907;53.640;10.050;2023-12-14T02:20:20;100276.16;;;20.98;42.70
76973;BME280;65907;53.640;10.050;2023-12-14T02:22:51;100274.53;;;20.97;42.29
76973;BME280;65907;53.640;10.050;2023-12-14T02:25:18;100280.19;;;21.02;42.19
76973;BME280;65907;53.640;10.050;2023-12-14T02:27:44;100281.53;;;21.06;42.28
76973;BME280;65907;53.640;10.050;2023-12-14T02:30:09;100288.44;;;20.98;42.35
76973;BME280;65907;53.640;10.050;2023-12-14T02:32:37;100291.03;;;20.98;42.58
76973;BME280;65907;53.640;10.050;2023-12-14T02:35:02;100298.31;;;20.94;42.47
76973;BME280;65907;53.640;10.050;2023-12-14T02:37:28;100302.06;;;20.91;42.83
76973;BME280;65907;53.640;10.050;2023-12-14T02:39:53;100312.22;;;20.85;42.90
76973;BME280;65907;53.640;10.050;2023-12-14T02:42:19;100314.44;;;20.80;42.99
76973;BME280;65907;53.640;10.050;2023-12-14T02:44:44;100317.47;;;20.85;42.66
76973;BME280;65907;53.640;10.050;2023-12-14T02:47:10;100315.25;;;20.90;42.74
76973;BME280;65907;53.640;10.050;2023-12-14T02:49:35;100327.63;;;20.88;42.51
76973;BME280;65907;53.640;10.050;2023-12-14T02:52:03;100324.75;;;20.81;42.98
76973;BME280;65907;53.640;10.050;2023-12-14T02:54:28;100330.25;;;20.88;42.62
76973;BME280;65907;53.640;10.050;2023-12-14T02:56:53;100331.22;;;20.87;42.74
76973;BME280;65907;53.640;10.050;2023-12-14T02:59:21;100339.44;;;20.82;42.79
76973;BME280;65907;53.640;10.050;2023-12-14T03:01:47;100331.50;;;20.84;42.84
76973;BME280;65907;53.640;10.050;2023-12-14T03:04:12;100334.50;;;20.89;42.54
76973;BME280;65907;53.640;10.050;2023-12-14T03:06:37;100332.03;;;20.87;42.76
76973;BME280;65907;53.640;10.050;2023-12-14T03:09:05;100338.09;;;20.88;42.24
76973;BME280;65907;53.640;10.050;2023-12-14T03:11:30;100331.22;;;20.87;42.65
76973;BME280;65907;53.640;10.050;2023-12-14T03:13:55;100343.03;;;20.91;42.15
76973;BME280;65907;53.640;10.050;2023-12-14T03:16:23;100350.75;;;20.83;42.70
76973;BME280;65907;53.640;10.050;2023-12-14T03:18:49;100351.16;;;20.88;42.51
76973;BME280;65907;53.640;10.050;2023-12-14T03:21:18;100347.31;;;20.92;42.32
76973;BME280;65907;53.640;10.050;2023-12-14T03:23:43;100346.78;;;20.88;42.16
76973;BME280;65907;53.640;10.050;2023-12-14T03:26:08;100358.44;;;20.84;42.71
76973;BME280;65907;53.640;10.050;2023-12-14T03:28:34;100349.91;;;20.82;42.56
76973;BME280;65907;53.640;10.050;2023-12-14T03:30:59;100351.94;;;20.78;43.08
76973;BME280;65907;53.640;10.050;2023-12-14T03:33:28;100365.97;;;20.77;42.94
76973;BME280;65907;53.640;10.050;2023-12-14T03:35:53;100366.94;;;20.76;42.89
76973;BME280;65907;53.640;10.050;2023-12-14T03:38:18;100369.16;;;20.81;42.70
76973;BME280;65907;53.640;10.050;2023-12-14T03:40:43;100373.81;;;20.77;42.60
76973;BME280;65907;53.640;10.050;2023-12-14T03:43:09;100373.66;;;20.79;42.92
76973;BME280;65907;53.640;10.050;2023-12-14T03:45:34;100381.91;;;20.74;42.71
76973;BME280;65907;53.640;10.050;2023-12-14T03:48:00;100380.13;;;20.75;43.12
76973;BME280;65907;53.640;10.050;2023-12-14T03:50:25;100377.78;;;20.72;42.72
76973;BME280;65907;53.640;10.050;2023-12-14T03:52:50;100388.25;;;20.72;42.94
76973;BME280;65907;53.640;10.050;2023-12-14T03:55:15;100392.34;;;20.74;42.88
76973;BME280;65907;53.640;10.050;2023-12-14T03:57:41;100398.31;;;20.76;42.79
76973;BME280;65907;53.640;10.050;2023-12-14T04:00:09;100400.63;;;20.70;42.85
76973;BME280;65907;53.640;10.050;2023-12-14T04:02:34;100404.88;;;20.71;42.77
76973;BME280;65907;53.640;10.050;2023-12-14T04:04:59;100413.69;;;20.70;42.88
76973;BME280;65907;53.640;10.050;2023-12-14T04:07:25;100417.78;;;20.72;42.90
76973;BME280;65907;53.640;10.050;2023-12-14T04:09:50;100424.66;;;20.73;42.74
76973;BME280;65907;53.640;10.050;2023-12-14T04:12:15;100426.75;;;20.70;42.91
76973;BME280;65907;53.640;10.050;2023-12-14T04:14:40;100427.97;;;20.75;42.71
76973;BME280;65907;53.640;10.050;2023-12-14T04:17:06;100433.06;;;20.77;42.73
76973;BME280;65907;53.640;10.050;2023-12-14T04:19:31;100437.78;;;20.83;42.43
76973;BME280;65907;53.640;10.050;2023-12-14T04:21:56;100439.94;;;20.78;42.68
76973;BME280;65907;53.640;10.050;2023-12-14T04:24:21;100444.59;;;20.74;42.49
76973;BME280;65907;53.640;10.050;2023-12-14T04:26:47;100452.72;;;20.71;42.95
76973;BME280;65907;53.640;10.050;2023-12-14T04:29:12;100451.34;;;20.67;42.74
76973;BME280;65907;53.640;10.050;2023-12-14T04:31:37;100446.69;;;20.71;42.92
76973;BME280;65907;53.640;10.050;2023-12-14T04:34:03;100458.91;;;20.70;42.72
76973;BME280;65907;53.640;10.050;2023-12-14T04:36:28;100458.09;;;20.70;42.86
76973;BME280;65907;53.640;10.050;2023-12-14T04:38:53;100468.66;;;20.68;43.21
76973;BME280;65907;53.640;10.050;2023-12-14T04:41:22;100459.06;;;20.69;42.93
76973;BME280;65907;53.640;10.050;2023-12-14T04:43:47;100471.00;;;20.71;42.96
76973;BME280;65907;53.640;10.050;2023-12-14T04:48:47;100478.31;;;20.68;42.78
76973;BME280;65907;53.640;10.050;2023-12-14T04:51:12;100487.66;;;20.70;42.89
76973;BME280;65907;53.640;10.050;2023-12-14T04:53:38;100495.75;;;20.67;42.78
76973;BME280;65907;53.640;10.050;2023-12-14T04:56:03;100491.75;;;20.63;42.70
76973;BME280;65907;53.640;10.050;2023-12-14T04:58:29;100488.59;;;20.69;42.88
76973;BME280;65907;53.640;10.050;2023-12-14T05:00:54;100488.06;;;20.66;42.80
76973;BME280;65907;53.640;10.050;2023-12-14T05:03:19;100488.34;;;20.72;42.72
76973;BME280;65907;53.640;10.050;2023-12-14T05:05:44;100498.38;;;20.67;42.60
76973;BME280;65907;53.640;10.050;2023-12-14T05:08:10;100501.25;;;20.64;42.76
76973;BME280;65907;53.640;10.050;2023-12-14T05:10:35;100500.97;;;20.67;42.71
76973;BME280;65907;53.640;10.050;2023-12-14T05:13:00;100501.66;;;20.69;42.65
76973;BME280;65907;53.640;10.050;2023-12-14T05:15:27;100511.59;;;20.75;42.45
76973;BME280;65907;53.640;10.050;2023-12-14T05:17:52;100516.38;;;20.70;42.53
76973;BME280;65907;53.640;10.050;2023-12-14T05:20:18;100528.63;;;20.70;42.50
76973;BME280;65907;53.640;10.050;2023-12-14T05:22:44;100532.31;;;20.67;42.79
76973;BME280;65907;53.640;10.050;2023-12-14T05:25:09;100531.59;;;20.55;43.17
76973;BME280;65907;53.640;10.050;2023-12-14T05:27:35;100530.25;;;20.61;42.86
76973;BME280;65907;53.640;10.050;2023-12-14T05:30:03;100538.19;;;20.59;42.85
76973;BME280;65907;53.640;10.050;2023-12-14T05:32:29;100535.22;;;20.64;43.03
76973;BME280;65907;53.640;10.050;2023-12-14T05:34:57;100545.53;;;20.66;42.70
76973;BME280;65907;53.640;10.050;2023-12-14T05:37:24;100546.22;;;20.68;42.70
76973;BME280;65907;53.640;10.050;2023-12-14T05:39:49;100550.34;;;20.70;42.89
76973;BME280;65907;53.640;10.050;2023-12-14T05:42:18;100549.13;;;20.74;42.27
76973;BME280;65907;53.640;10.050;2023-12-14T05:44:43;100556.72;;;20.77;42.48
76973;BME280;65907;53.640;10.050;2023-12-14T05:47:10;100569.66;;;20.79;42.21
76973;BME280;65907;53.640;10.050;2023-12-14T05:49:35;100572.88;;;20.83;42.43
76973;BME280;65907;53.640;10.050;2023-12-14T05:52:00;100569.56;;;20.81;42.46
76973;BME280;65907;53.640;10.050;2023-12-14T05:54:25;100579.88;;;20.82;42.13
76973;BME280;65907;53.640;10.050;2023-12-14T05:56:51;100576.22;;;20.95;41.99
76973;BME280;65907;53.640;10.050;2023-12-14T05:59:16;100579.22;;;20.90;41.97
76973;BME280;65907;53.640;10.050;2023-12-14T06:01:42;100585.72;;;20.96;41.40
76973;BME280;65907;53.640;10.050;2023-12-14T06:04:08;100588.13;;;20.87;42.31
76973;BME280;65907;53.640;10.050;2023-12-14T06:06:33;100589.94;;;20.87;41.95
76973;BME280;65907;53.640;10.050;2023-12-14T06:09:01;100578.91;;;20.83;42.03
76973;BME280;65907;53.640;10.050;2023-12-14T06:11:27;100583.19;;;20.84;42.14
76973;BME280;65907;53.640;10.050;2023-12-14T06:13:55;100579.28;;;20.78;41.90
76973;BME280;65907;53.640;10.050;2023-12-14T06:16:20;100588.41;;;20.84;42.02
76973;BME280;65907;53.640;10.050;2023-12-14T06:18:45;100593.91;;;20.81;42.00
76973;BME280;65907;53.640;10.050;2023-12-14T06:21:13;100596.38;;;20.83;41.95
76973;BME280;65907;53.640;10.050;2023-12-14T06:23:39;100605.31;;;20.80;41.84
76973;BME280;65907;53.640;10.050;2023-12-14T06:56:54;100644.59;;;21.00;39.31
76973;BME280;65907;53.640;10.050;2023-12-14T06:59:20;100656.59;;;21.02;39.19
76973;BME280;65907;53.640;10.050;2023-12-14T07:01:48;100663.34;;;21.05;39.48
76973;BME280;65907;53.640;10.050;2023-12-14T07:04:17;100672.16;;;21.04;39.43
76973;BME280;65907;53.640;10.050;2023-12-14T07:06:49;100664.19;;;21.05;39.12
76973;BME280;65907;53.640;10.050;2023-12-14T07:09:15;100668.56;;;21.05;39.25
76973;BME280;65907;53.640;10.050;2023-12-14T07:14:15;100679.88;;;21.05;39.41
76973;BME280;65907;53.640;10.050;2023-12-14T07:16:41;100682.75;;;21.02;39.35
76973;BME280;65907;53.640;10.050;2023-12-14T07:19:06;100689.38;;;20.85;39.80
76973;BME280;65907;53.640;10.050;2023-12-14T07:21:31;100690.13;;;20.76;39.88
76973;BME280;65907;53.640;10.050;2023-12-14T07:23:57;100696.66;;;20.70;40.05
76973;BME280;65907;53.640;10.050;2023-12-14T07:26:22;100709.63;;;20.72;40.08
76973;BME280;65907;53.640;10.050;2023-12-14T07:28:48;100718.94;;;20.65;40.25
76973;BME280;65907;53.640;10.050;2023-12-14T07:31:13;100717.03;;;20.67;40.26
76973;BME280;65907;53.640;10.050;2023-12-14T07:33:39;100718.94;;;20.65;40.56
76973;BME280;65907;53.640;10.050;2023-12-14T07:59:19;100777.94;;;20.67;40.23
76973;BME280;65907;53.640;10.050;2023-12-14T08:01:48;100784.81;;;20.68;40.26
76973;BME280;65907;53.640;10.050;2023-12-14T08:04:13;100790.03;;;20.68;40.59
76973;BME280;65907;53.640;10.050;2023-12-14T08:06:39;100794.69;;;20.65;40.60
76973;BME280;65907;53.640;10.050;2023-12-14T08:09:04;100796.56;;;20.74;40.45
76973;BME280;65907;53.640;10.050;2023-12-14T08:11:30;100799.97;;;20.74;40.44
76973;BME280;65907;53.640;10.050;2023-12-14T08:13:56;100803.28;;;20.88;39.95
76973;BME280;65907;53.640;10.050;2023-12-14T09:54:32;100965.03;;;21.14;39.62
76973;BME280;65907;53.640;10.050;2023-12-14T09:56:57;100963.97;;;21.16;39.60
76973;BME280;65907;53.640;10.050;2023-12-14T09:59:25;100974.06;;;21.21;39.57
76973;BME280;65907;53.640;10.050;2023-12-14T10:01:50;100974.19;;;21.08;40.03
76973;BME280;65907;53.640;10.050;2023-12-14T10:04:16;100978.41;;;21.32;38.76
76973;BME280;65907;53.640;10.050;2023-12-14T10:06:43;100980.19;;;20.19;34.39
76973;BME280;65907;53.640;10.050;2023-12-14T10:09:09;100984.03;;;19.66;35.11
76973;BME280;65907;53.640;10.050;2023-12-14T10:11:45;100989.19;;;19.79;35.83
76973;BME280;65907;53.640;10.050;2023-12-14T10:16:45;100985.75;;;20.26;36.98
76973;BME280;65907;53.640;10.050;2023-12-14T10:19:10;100991.56;;;20.41;37.38
76973;BME280;65907;53.640;10.050;2023-12-14T10:21:36;100992.66;;;20.49;37.94
76973;BME280;65907;53.640;10.050;2023-12-14T10:24:03;100998.84;;;20.60;37.60
76973;BME280;65907;53.640;10.050;2023-12-14T10:26:30;100999.94;;;20.80;37.66
76973;BME280;65907;53.640;10.050;2023-12-14T10:28:56;100997.06;;;20.83;37.39
76973;BME280;65907;53.640;10.050;2023-12-14T10:31:21;101004.81;;;20.85;37.59
76973;BME280;65907;53.640;10.050;2023-12-14T10:33:46;101008.13;;;20.87;37.73
76973;BME280;65907;53.640;10.050;2023-12-14T10:36:18;101012.28;;;20.89;37.72
76973;BME280;65907;53.640;10.050;2023-12-14T10:38:48;101015.00;;;20.88;37.80
76973;BME280;65907;53.640;10.050;2023-12-14T10:41:13;101020.03;;;20.80;36.47
76973;BME280;65907;53.640;10.050;2023-12-14T10:43:38;101024.97;;;20.71;37.09
76973;BME280;65907;53.640;10.050;2023-12-14T10:46:05;101022.94;;;20.75;37.36
76973;BME280;65907;53.640;10.050;2023-12-14T10:48:32;101029.03;;;20.87;37.49
76973;BME280;65907;53.640;10.050;2023-12-14T10:50:59;101037.94;;;20.96;37.47
76973;BME280;65907;53.640;10.050;2023-12-14T10:53:26;101034.84;;;21.02;37.39
76973;BME280;65907;53.640;10.050;2023-12-14T10:55:51;101037.19;;;21.05;37.60
76973;BME280;65907;53.640;10.050;2023-12-14T10:58:19;101035.44;;;21.05;37.34
76973;BME280;65907;53.640;10.050;2023-12-14T11:00:44;101044.81;;;21.08;37.48
76973;BME280;65907;53.640;10.050;2023-12-14T11:03:22;101045.66;;;21.09;37.54
76973;BME280;65907;53.640;10.050;2023-12-14T11:05:47;101043.97;;;21.08;37.94
76973;BME280;65907;53.640;10.050;2023-12-14T11:08:12;101046.47;;;21.09;37.77
76973;BME280;65907;53.640;10.050;2023-12-14T11:10:42;101051.47;;;21.12;37.80
76973;BME280;65907;53.640;10.050;2023-12-14T11:13:12;101049.69;;;21.13;37.80
76973;BME280;65907;53.640;10.050;2023-12-14T11:15:49;101052.53;;;20.98;38.27
76973;BME280;65907;53.640;10.050;2023-12-14T11:23:11;101053.72;;;20.94;38.49
76973;BME280;65907;53.640;10.050;2023-12-14T11:25:41;101054.09;;;21.01;38.50
76973;BME280;65907;53.640;10.050;2023-12-14T11:28:06;101064.75;;;21.09;38.19
76973;BME280;65907;53.640;10.050;2023-12-14T11:30:33;101062.88;;;21.00;38.47
76973;BME280;65907;53.640;10.050;2023-12-14T11:33:01;101073.34;;;21.00;38.39
76973;BME280;65907;53.640;10.050;2023-12-14T11:35:26;101080.38;;;20.99;38.55
76973;BME280;65907;53.640;10.050;2023-12-14T11:37:54;101081.06;;;21.01;38.82
76973;BME280;65907;53.640;10.050;2023-12-14T11:40:22;101087.03;;;21.03;38.59
76973;BME280;65907;53.640;10.050;2023-12-14T11:42:58;101087.47;;;21.09;38.62
76973;BME280;65907;53.640;10.050;2023-12-14T11:45:24;101089.63;;;21.03;38.61
76973;BME280;65907;53.640;10.050;2023-12-14T11:47:49;101088.69;;;21.04;38.63
76973;BME280;65907;53.640;10.050;2023-12-14T11:50:15;101090.44;;;21.04;38.47
76973;BME280;65907;53.640;10.050;2023-12-14T11:52:41;101094.84;;;21.03;38.76
76973;BME280;65907;53.640;10.050;2023-12-14T11:55:07;101096.75;;;21.01;38.86
76973;BME280;65907;53.640;10.050;2023-12-14T11:57:32;101097.72;;;21.00;38.79
76973;BME280;65907;53.640;10.050;2023-12-14T11:59:58;101096.97;;;20.98;38.72
76973;BME280;65907;53.640;10.050;2023-12-14T12:02:24;101105.66;;;20.99;38.77
76973;BME280;65907;53.640;10.050;2023-12-14T12:04:50;101112.31;;;20.91;39.20
76973;BME280;65907;53.640;10.050;2023-12-14T12:07:16;101108.25;;;20.87;39.43
76973;BME280;65907;53.640;10.050;2023-12-14T12:09:44;101111.13;;;20.96;39.38
76973;BME280;65907;53.640;10.050;2023-12-14T12:12:10;101113.63;;;20.97;39.50
76973;BME280;65907;53.640;10.050;2023-12-14T12:14:38;101112.91;;;20.84;40.41
76973;BME280;65907;53.640;10.050;2023-12-14T12:17:04;101117.41;;;20.93;40.37
76973;BME280;65907;53.640;10.050;2023-12-14T12:19:31;101108.47;;;20.73;41.30
76973;BME280;65907;53.640;10.050;2023-12-14T12:21:56;101111.13;;;20.96;39.74
76973;BME280;65907;53.640;10.050;2023-12-14T12:24:22;101107.91;;;21.15;40.01
76973;BME280;65907;53.640;10.050;2023-12-14T12:26:47;101118.84;;;21.31;39.77
76973;BME280;65907;53.640;10.050;2023-12-14T12:29:12;101126.13;;;21.16;40.69
76973;BME280;65907;53.640;10.050;2023-12-14T12:31:37;101123.22;;;21.31;40.39
76973;BME280;65907;53.640;10.050;2023-12-14T12:34:03;101125.97;;;21.29;41.01
76973;BME280;65907;53.640;10.050;2023-12-14T12:36:28;101131.22;;;21.29;40.98
76973;BME280;65907;53.640;10.050;2023-12-14T12:38:53;101128.25;;;21.34;40.77
76973;BME280;65907;53.640;10.050;2023-12-14T12:41:18;101134.91;;;21.38;40.60
76973;BME280;65907;53.640;10.050;2023-12-14T12:43:44;101127.16;;;21.37;40.31
76973;BME280;65907;53.640;10.050;2023-12-14T12:46:09;101128.81;;;21.38;40.69
76973;BME280;65907;53.640;10.050;2023-12-14T12:48:34;101130.84;;;21.45;40.51
76973;BME280;65907;53.640;10.050;2023-12-14T12:51:00;101134.06;;;21.26;41.35
76973;BME280;65907;53.640;10.050;2023-12-14T12:53:25;101137.25;;;21.30;40.90
76973;BME280;65907;53.640;10.050;2023-12-14T12:55:51;101141.31;;;21.34;40.65
76973;BME280;65907;53.640;10.050;2023-12-14T12:58:17;101137.00;;;21.33;41.17
76973;BME280;65907;53.640;10.050;2023-12-14T13:00:42;101146.31;;;21.14;42.44
76973;BME280;65907;53.640;10.050;2023-12-14T13:03:07;101142.88;;;21.25;41.62
76973;BME280;65907;53.640;10.050;2023-12-14T13:05:35;101158.06;;;21.31;41.38
76973;BME280;65907;53.640;10.050;2023-12-14T13:08:01;101151.19;;;21.30;41.76
76973;BME280;65907;53.640;10.050;2023-12-14T13:10:26;101155.59;;;21.18;41.90
76973;BME280;65907;53.640;10.050;2023-12-14T13:12:54;101149.66;;;21.16;41.81
76973;BME280;65907;53.640;10.050;2023-12-14T13:15:22;101150.47;;;21.28;41.41
76973;BME280;65907;53.640;10.050;2023-12-14T13:17:54;101157.38;;;21.29;41.39
76973;BME280;65907;53.640;10.050;2023-12-14T13:20:19;101160.56;;;21.33;41.40
76973;BME280;65907;53.640;10.050;2023-12-14T13:22:44;101162.22;;;21.45;41.09
76973;BME280;65907;53.640;10.050;2023-12-14T13:25:10;101171.13;;;21.43;41.09
76973;BME280;65907;53.640;10.050;2023-12-14T13:27:35;101167.09;;;21.39;41.43
76973;BME280;65907;53.640;10.050;2023-12-14T13:30:01;101169.13;;;21.46;41.25
76973;BME280;65907;53.640;10.050;2023-12-14T13:32:26;101179.94;;;21.42;41.20
76973;BME280;65907;53.640;10.050;2023-12-14T13:34:51;101180.19;;;21.50;41.24
76973;BME280;65907;53.640;10.050;2023-12-14T13:37:17;101179.94;;;21.42;41.70
76973;BME280;65907;53.640;10.050;2023-12-14T13:39:42;101183.50;;;21.52;40.94
76973;BME280;65907;53.640;10.050;2023-12-14T13:42:10;101191.84;;;21.46;41.20
76973;BME280;65907;53.640;10.050;2023-12-14T13:44:35;101184.22;;;21.54;41.00
76973;BME280;65907;53.640;10.050;2023-12-14T13:47:04;101187.78;;;21.53;41.11
76973;BME280;65907;53.640;10.050;2023-12-14T13:49:29;101194.34;;;21.59;40.98
76973;BME280;65907;53.640;10.050;2023-12-14T13:51:56;101199.81;;;21.44;41.41
76973;BME280;65907;53.640;10.050;2023-12-14T13:54:22;101198.97;;;21.44;41.66
76973;BME280;65907;53.640;10.050;2023-12-14T13:56:47;101210.50;;;21.41;41.76
76973;BME280;65907;53.640;10.050;2023-12-14T13:59:13;101210.41;;;21.31;38.88
76973;BME280;65907;53.640;10.050;2023-12-14T14:01:38;101224.75;;;21.26;39.19
76973;BME280;65907;53.640;10.050;2023-12-14T14:04:03;101221.47;;;21.35;39.82
76973;BME280;65907;53.640;10.050;2023-12-14T14:06:31;101227.53;;;21.24;37.76
76973;BME280;65907;53.640;10.050;2023-12-14T14:08:59;101233.19;;;21.06;39.26
76973;BME280;65907;53.640;10.050;2023-12-14T14:11:24;101241.72;;;20.97;39.59
76973;BME280;65907;53.640;10.050;2023-12-14T14:13:49;101235.19;;;21.03;39.98
76973;BME280;65907;53.640;10.050;2023-12-14T14:16:15;101240.56;;;21.01;39.62
76973;BME280;65907;53.640;10.050;2023-12-14T14:18:40;101246.97;;;21.09;39.92
76973;BME280;65907;53.640;10.050;2023-12-14T14:21:05;101256.41;;;21.23;39.52
76973;BME280;65907;53.640;10.050;2023-12-14T14:23:33;101265.66;;;21.27;39.53
76973;BME280;65907;53.640;10.050;2023-12-14T14:25:58;101271.75;;;21.27;39.56
76973;BME280;65907;53.640;10.050;2023-12-14T14:28:23;101272.56;;;21.28;39.61
76973;BME280;65907;53.640;10.050;2023-12-14T14:30:49;101288.16;;;21.29;39.53
76973;BME280;65907;53.640;10.050;2023-12-14T14:33:17;101281.03;;;21.31;39.45
76973;BME280;65907;53.640;10.050;2023-12-14T14:35:46;101290.63;;;21.31;39.59
76973;BME280;65907;53.640;10.050;2023-12-14T14:38:12;101298.47;;;21.19;39.94
76973;BME280;65907;53.640;10.050;2023-12-14T14:40:37;101298.13;;;21.24;40.09
76973;BME280;65907;53.640;10.050;2023-12-14T14:43:03;101306.69;;;21.26;40.08
76973;BME280;65907;53.640;10.050;2023-12-14T14:45:29;101316.94;;;21.29;39.97
76973;BME280;65907;53.640;10.050;2023-12-14T14:47:59;101322.03;;;21.31;39.99
76973;BME280;65907;53.640;10.050;2023-12-14T14:50:25;101321.22;;;21.30;40.07
76973;BME280;65907;53.640;10.050;2023-12-14T14:52:50;101328.09;;;21.31;39.76
76973;BME280;65907;53.640;10.050;2023-12-14T14:55:15;101329.28;;;21.27;40.10
76973;BME280;65907;53.640;10.050;2023-12-14T14:57:41;101333.44;;;21.30;40.16
76973;BME280;65907;53.640;10.050;2023-12-14T15:00:06;101337.63;;;21.44;39.91
76973;BME280;65907;53.640;10.050;2023-12-14T15:02:32;101346.03;;;21.25;40.44
76973;BME280;65907;53.640;10.050;2023-12-14T15:04:57;101355.53;;;21.26;40.06
76973;BME280;65907;53.640;10.050;2023-12-14T15:07:25;101364.72;;;21.31;40.09
76973;BME280;65907;53.640;10.050;2023-12-14T15:09:53;101369.81;;;21.33;40.05
76973;BME280;65907;53.640;10.050;2023-12-14T15:12:21;101371.53;;;21.34;40.07
76973;BME280;65907;53.640;10.050;2023-12-14T15:14:46;101368.75;;;21.24;40.27
76973;BME280;65907;53.640;10.050;2023-12-14T15:17:12;101381.59;;;21.27;40.07
76973;BME280;65907;53.640;10.050;2023-12-14T15:19:37;101380.41;;;21.31;39.97
76973;BME280;65907;53.640;10.050;2023-12-14T15:22:03;101393.00;;;21.26;40.09
76973;BME280;65907;53.640;10.050;2023-12-14T15:24:28;101394.78;;;21.26;40.03